Aniak, AK

9:24 AM AKDT on June 30, 2015 (GMT -0800)
Aniak | | Change Station
CLOSE
Current Station
Airport
Location: Aniak,
Elevation: 85 ft
Nearby Weather Stations

Elev 85 ft 61.58 °N, 159.54 °W | Updated 8 minutes ago

Clear
Clear
54 °F
Feels Like 54 °F
N
0
Wind Variable Wind from North

Today
High -- | Low -- °F
--% Chance of Precip.
Yesterday
High -- | Low -- °F
Precip. -- in
4:59 AM 0:23 AM
Waxing Gibbous, 98% visible
Pressure 30.04 in
Visibility 1.2 miles
Clouds Clear
Dew Point 50 °F
Humidity 88%
Rainfall 0.44 in
Snow Depth Not available.
UV 2 out of 12
Pollen Not available.
Air Quality Not available.
Flu Activity Sporadic
METAR PANI 301716Z AUTO 00000KT 1 1/4SM CLR 12/10 A3004 RMK AO1

More Conditions Fewer Conditions

Pressure 30.04 in
Visibility 1.2 miles
Clouds Clear
Dew Point 50 °F
Humidity 88%
Rainfall 0.44 in
Snow Depth Not available.
UV 2 out of 12
Pollen Not available.
Air Quality Not available.
Flu Activity Sporadic
METAR PANI 301716Z AUTO 00000KT 1 1/4SM CLR 12/10 A3004 RMK AO1

More Conditions Fewer Conditions

10-Day Weather Forecast

×

Almanac

Astronomy

Jun. 30, 2015 Rise Set
Actual Time
Civil Twilight
Nautical Twilight
Astronomical Twilight
Moon
Length of Visible Light
Length of Day
Tomorrow will be .
, % of the Moon is Illuminated

Today's Extremes

State Highs State Lows

Community

WunderPhotos

Upload Photos

1,834,048 photos uploaded!

WunderBlogs® & News

Nearby

Air Quality

  Air Quality AQ Index Pollutant
Not available.

Snow Depth

Station Depth Elevation

Earthquake Activity

City Distance Mag. Time & Date
Minimum magnitude displayed is 2.5.

Coastal Water Temperatures

Place Temperature

Stations

Nearby Weather Stations

Station Location Temp. Windchill Dew Point Humidity Wind Precip. Elev Updated Type